createdAt,value
2023-05-14T00:00:58.354Z,101144.06
2023-05-14T00:03:24.777Z,101154.31
2023-05-14T00:05:51.185Z,101122.94
2023-05-14T00:08:17.540Z,101093.97
2023-05-14T00:10:43.978Z,101121.31
2023-05-14T00:13:10.583Z,101119.41
2023-05-14T00:15:37.035Z,101097.81
2023-05-14T00:18:03.540Z,101138.31
2023-05-14T00:20:30.452Z,101098.69
2023-05-14T00:22:56.804Z,101105.44
2023-05-14T00:25:23.248Z,101118.41
2023-05-14T00:27:49.547Z,101142.53
2023-05-14T00:30:15.877Z,101148.72
2023-05-14T00:32:42.210Z,101139.91
2023-05-14T00:35:09.051Z,101141.38
2023-05-14T00:37:36.294Z,101122.25
2023-05-14T00:40:03.600Z,101137.88
2023-05-14T00:42:29.912Z,101082.91
2023-05-14T00:44:56.233Z,101136.53
2023-05-14T00:47:22.743Z,101104.53
2023-05-14T00:49:49.171Z,101058.44
2023-05-14T00:52:16.548Z,101105.09
2023-05-14T00:54:43.087Z,101100.06
2023-05-14T00:57:09.471Z,101098.91
2023-05-14T00:59:35.947Z,101067.50
2023-05-14T01:02:02.418Z,101075.94
2023-05-14T01:04:29.350Z,101078.50
2023-05-14T01:07:22.232Z,101128.88
2023-05-14T01:09:54.994Z,101124.69
2023-05-14T01:12:29.970Z,101000.00
2023-05-14T01:15:12.558Z,101115.19
2023-05-14T01:17:46.810Z,101128.44
2023-05-14T01:20:13.502Z,100978.56
2023-05-14T01:22:39.896Z,100978.03
2023-05-14T01:25:06.937Z,101102.06
2023-05-14T01:27:46.240Z,101100.53
2023-05-14T01:30:27.384Z,101095.94
2023-05-14T01:32:57.874Z,101094.63
2023-05-14T01:35:28.506Z,101070.69
2023-05-14T01:37:57.393Z,101123.22
2023-05-14T01:40:25.357Z,101144.81
2023-05-14T01:42:53.511Z,101128.28
2023-05-14T01:45:21.367Z,101089.72
2023-05-14T01:47:47.988Z,101104.78
2023-05-14T01:50:14.473Z,101073.19
2023-05-14T01:52:40.840Z,101120.31
2023-05-14T01:55:07.790Z,101098.91
2023-05-14T01:57:34.130Z,101099.69
2023-05-14T02:00:00.669Z,101102.47
2023-05-14T02:02:27.061Z,101084.38
2023-05-14T02:04:53.417Z,101071.47
2023-05-14T02:07:19.725Z,101107.16
2023-05-14T02:09:46.057Z,101112.66
2023-05-14T02:12:12.385Z,101113.19
2023-05-14T02:14:38.795Z,101024.25
2023-05-14T02:17:05.439Z,101081.25
2023-05-14T02:19:31.855Z,101081.38
2023-05-14T02:22:00.960Z,101106.91
2023-05-14T02:24:27.454Z,101107.97
2023-05-14T02:26:53.900Z,101044.47
2023-05-14T02:29:20.392Z,101081.22
2023-05-14T02:31:46.785Z,101033.38
2023-05-14T02:34:13.176Z,100981.63
2023-05-14T02:36:39.947Z,101094.63
2023-05-14T02:39:06.567Z,101039.31
2023-05-14T02:41:32.987Z,101041.22
2023-05-14T02:43:59.334Z,101068.56
2023-05-14T02:46:25.831Z,101066.53
2023-05-14T02:48:52.240Z,101025.66
2023-05-14T02:51:20.893Z,101051.34
2023-05-14T02:53:47.228Z,101039.09
2023-05-14T02:56:13.554Z,101064.34
2023-05-14T02:58:39.912Z,101093.66
2023-05-14T03:01:06.314Z,101073.38
2023-05-14T03:03:33.778Z,101081.13
2023-05-14T03:06:00.706Z,101074.50
2023-05-14T03:08:27.034Z,101095.03
2023-05-14T03:10:53.368Z,101070.03
2023-05-14T03:13:20.503Z,101069.53
2023-05-14T03:15:47.352Z,101061.94
2023-05-14T03:18:14.968Z,101091.56
2023-05-14T03:20:41.845Z,101090.19
2023-05-14T03:23:08.234Z,101054.59
2023-05-14T03:25:34.586Z,101070.53
2023-05-14T03:28:00.926Z,101084.50
2023-05-14T03:30:27.441Z,101065.66
2023-05-14T03:32:53.966Z,101066.69
2023-05-14T03:35:21.366Z,101021.97
2023-05-14T03:37:47.744Z,100961.78
2023-05-14T03:40:14.107Z,101068.69
2023-05-14T03:42:40.477Z,100981.22
2023-05-14T03:45:07.664Z,101057.00
2023-05-14T03:47:34.008Z,101070.00
2023-05-14T03:50:00.386Z,101013.66
2023-05-14T03:52:27.091Z,101063.75
2023-05-14T03:54:53.474Z,101018.22
2023-05-14T03:57:19.779Z,100970.00
2023-05-14T03:59:46.087Z,100968.34
2023-05-14T04:02:12.465Z,101056.38
2023-05-14T04:04:38.903Z,101010.66
2023-05-14T04:07:05.389Z,101056.28
2023-05-14T04:09:31.738Z,101007.88
2023-05-14T04:11:58.112Z,101058.84
2023-05-14T04:14:24.747Z,100982.31
2023-05-14T04:16:51.079Z,101002.47
2023-05-14T04:19:17.671Z,101034.41
2023-05-14T04:21:44.283Z,101056.72
2023-05-14T04:24:10.613Z,101051.53
2023-05-14T04:26:36.950Z,101044.50
2023-05-14T04:29:03.432Z,101010.91
2023-05-14T04:31:30.316Z,101045.31
2023-05-14T04:33:56.665Z,101039.09
2023-05-14T04:36:23.003Z,101071.78
2023-05-14T04:38:49.342Z,101056.44
2023-05-14T04:41:15.694Z,101053.97
2023-05-14T04:43:42.020Z,100973.59
2023-05-14T04:46:09.307Z,101046.28
2023-05-14T04:48:35.698Z,101041.88
2023-05-14T04:51:02.040Z,101065.91
2023-05-14T04:53:28.408Z,101059.56
2023-05-14T04:55:55.068Z,100994.88
2023-05-14T04:58:23.115Z,101006.22
2023-05-14T05:00:50.068Z,101004.69
2023-05-14T05:03:16.573Z,101026.19
2023-05-14T05:05:43.040Z,101042.94
2023-05-14T05:08:11.249Z,101024.00
2023-05-14T05:10:37.591Z,101076.81
2023-05-14T05:13:03.905Z,101064.16
2023-05-14T05:15:30.324Z,100975.25
2023-05-14T05:17:56.713Z,101054.56
2023-05-14T05:20:23.420Z,101056.38
2023-05-14T05:22:49.865Z,101065.00
2023-05-14T05:25:16.281Z,101004.47
2023-05-14T05:27:42.584Z,101044.19
2023-05-14T05:30:09.322Z,101091.53
2023-05-14T05:32:36.064Z,101054.94
2023-05-14T05:35:03.225Z,101060.75
2023-05-14T05:37:30.674Z,101010.38
2023-05-14T05:39:57.027Z,101063.72
2023-05-14T05:42:24.213Z,101050.47
2023-05-14T05:44:50.534Z,101048.59
2023-05-14T05:47:17.104Z,101054.59
2023-05-14T05:49:43.490Z,101062.16
2023-05-14T05:52:10.287Z,101054.34
2023-05-14T05:54:36.662Z,101044.06
2023-05-14T05:57:03.048Z,101059.31
2023-05-14T05:59:29.383Z,101042.84
2023-05-14T06:01:55.764Z,101038.88
2023-05-14T06:04:22.182Z,101065.53
2023-05-14T06:06:48.507Z,101041.28
2023-05-14T06:09:14.885Z,101058.22
2023-05-14T06:11:41.257Z,101073.75
2023-05-14T06:14:07.562Z,101066.66
2023-05-14T06:16:33.936Z,101059.69
2023-05-14T06:19:00.380Z,101040.63
2023-05-14T06:21:26.744Z,101063.03
2023-05-14T06:23:53.167Z,101033.50
2023-05-14T06:26:19.514Z,101057.59
2023-05-14T06:28:45.817Z,101030.88
2023-05-14T06:31:12.168Z,101072.66
2023-05-14T06:33:39.078Z,101032.91
2023-05-14T06:36:06.733Z,101091.44
2023-05-14T06:38:33.174Z,101057.25
2023-05-14T06:40:59.543Z,101042.75
2023-05-14T06:43:25.914Z,101063.63
2023-05-14T06:45:52.330Z,101086.66
2023-05-14T06:48:19.397Z,101053.41
2023-05-14T06:50:47.478Z,101026.63
2023-05-14T06:53:14.479Z,101083.44
2023-05-14T06:55:41.053Z,101080.16
2023-05-14T06:58:07.987Z,101076.38
2023-05-14T07:00:34.601Z,101038.19
2023-05-14T07:03:00.989Z,101063.97
2023-05-14T07:05:27.439Z,101060.41
2023-05-14T07:07:53.762Z,101050.66
2023-05-14T07:10:20.645Z,101062.34
2023-05-14T07:12:47.062Z,100981.31
2023-05-14T07:15:13.372Z,100994.09
2023-05-14T07:17:39.794Z,101065.63
2023-05-14T07:20:06.964Z,101054.09
2023-05-14T07:22:33.294Z,100990.78
2023-05-14T07:24:59.855Z,101049.31
2023-05-14T07:27:26.239Z,100973.22
2023-05-14T07:29:52.591Z,100916.34
2023-05-14T07:32:18.926Z,100880.81
2023-05-14T07:34:45.274Z,100959.38
2023-05-14T07:37:11.785Z,101061.66
2023-05-14T07:39:38.433Z,100988.88
2023-05-14T07:42:05.136Z,101064.00
2023-05-14T07:44:31.472Z,100985.94
2023-05-14T07:46:57.951Z,101016.66
2023-05-14T07:49:24.280Z,101036.38
2023-05-14T07:51:50.714Z,101042.69
2023-05-14T07:54:17.124Z,101054.19
2023-05-14T07:56:43.456Z,101061.69
2023-05-14T07:59:09.791Z,101035.31
2023-05-14T08:01:38.588Z,101041.94
2023-05-14T08:04:06.077Z,101082.81
2023-05-14T08:06:32.482Z,101058.06
2023-05-14T08:08:58.860Z,101053.25
2023-05-14T08:11:25.980Z,101046.28
2023-05-14T08:13:52.372Z,100976.19
2023-05-14T08:16:18.792Z,100975.31
2023-05-14T08:18:45.470Z,101047.69
2023-05-14T08:21:11.872Z,101012.53
2023-05-14T08:23:38.228Z,101031.38
2023-05-14T08:26:04.710Z,101017.34
2023-05-14T08:28:31.074Z,101051.78
2023-05-14T08:30:57.494Z,101037.09
2023-05-14T08:33:23.864Z,100990.69
2023-05-14T08:35:52.768Z,101067.69
2023-05-14T08:38:19.080Z,100961.78
2023-05-14T08:40:55.068Z,101069.94
2023-05-14T08:43:30.710Z,101051.09
2023-05-14T08:46:01.917Z,101015.81
2023-05-14T08:48:33.060Z,100966.38
2023-05-14T08:51:00.519Z,101056.25
2023-05-14T08:53:27.158Z,100969.75
2023-05-14T08:55:53.936Z,101056.53
2023-05-14T08:58:20.680Z,101010.63
2023-05-14T09:00:47.599Z,100984.06
2023-05-14T09:03:14.983Z,100984.97
2023-05-14T09:05:41.926Z,101004.88
2023-05-14T09:08:08.457Z,101020.31
2023-05-14T09:10:35.825Z,100980.72
2023-05-14T09:13:02.242Z,101042.47
2023-05-14T09:15:29.559Z,100997.72
2023-05-14T09:17:56.719Z,101022.16
2023-05-14T09:20:24.814Z,101012.28
2023-05-14T09:22:54.798Z,100977.13
2023-05-14T09:25:27.419Z,100989.47
2023-05-14T09:27:56.733Z,101041.50
2023-05-14T09:30:26.425Z,101027.38
2023-05-14T09:32:54.138Z,101026.59
2023-05-14T09:35:22.513Z,101013.13
2023-05-14T09:37:54.025Z,101054.38
2023-05-14T09:40:22.376Z,101034.72
2023-05-14T09:42:49.490Z,101051.50
2023-05-14T09:45:16.637Z,101008.75
2023-05-14T09:47:43.239Z,101048.72
2023-05-14T09:50:09.966Z,101024.97
2023-05-14T09:52:39.090Z,101032.97
2023-05-14T09:55:06.339Z,101002.88
2023-05-14T09:57:33.464Z,100959.13
2023-05-14T09:59:59.853Z,101001.47
2023-05-14T10:02:30.102Z,101009.03
2023-05-14T10:05:02.373Z,100997.78
2023-05-14T10:07:35.477Z,101004.25
2023-05-14T10:10:03.142Z,100996.19
2023-05-14T10:12:34.475Z,101016.16
2023-05-14T10:15:04.701Z,101032.63
2023-05-14T10:17:32.434Z,101022.63
2023-05-14T10:20:00.601Z,101018.00
2023-05-14T10:22:34.020Z,100990.19
2023-05-14T10:25:01.909Z,100976.56
2023-05-14T10:27:28.486Z,101003.13
2023-05-14T10:29:55.818Z,100975.44
2023-05-14T10:32:25.063Z,101001.44
2023-05-14T10:34:52.582Z,100992.91
2023-05-14T10:37:21.889Z,101015.38
2023-05-14T10:39:51.237Z,100984.44
2023-05-14T10:42:20.535Z,100978.53
2023-05-14T10:45:07.252Z,100955.09
2023-05-14T10:47:36.009Z,100992.69
2023-05-14T10:50:04.985Z,100966.75
2023-05-14T10:52:32.085Z,100989.50
2023-05-14T10:55:03.210Z,100983.44
2023-05-14T10:57:32.682Z,100961.78
2023-05-14T11:00:02.648Z,100947.97
2023-05-14T11:02:34.289Z,100960.06
2023-05-14T11:05:05.835Z,100939.38
2023-05-14T11:07:36.230Z,100980.03
2023-05-14T11:10:05.829Z,100953.19
2023-05-14T11:12:37.967Z,100944.72
2023-05-14T11:15:09.250Z,100929.28
2023-05-14T11:17:37.189Z,100915.25
2023-05-14T11:20:05.931Z,100959.63
2023-05-14T11:22:32.624Z,100936.13
2023-05-14T11:24:59.061Z,100948.03
2023-05-14T11:27:26.261Z,100926.59
2023-05-14T11:29:52.821Z,100927.44
2023-05-14T11:32:20.006Z,100946.75
2023-05-14T11:34:46.933Z,100936.94
2023-05-14T11:37:15.689Z,100914.09
2023-05-14T11:39:55.700Z,100914.47
2023-05-14T11:42:22.434Z,100904.97
2023-05-14T11:44:54.270Z,100935.94
2023-05-14T11:47:21.938Z,100893.97
2023-05-14T11:49:49.065Z,100928.31
2023-05-14T11:52:19.071Z,100920.47
2023-05-14T11:54:45.897Z,100882.50
2023-05-14T11:57:20.052Z,100915.50
2023-05-14T11:59:47.161Z,100919.06
2023-05-14T12:02:18.111Z,100918.09
2023-05-14T12:04:49.263Z,100907.84
2023-05-14T12:07:16.411Z,100910.09
2023-05-14T12:09:50.814Z,100871.25
2023-05-14T12:12:22.001Z,100869.56
2023-05-14T12:14:49.753Z,100907.44
2023-05-14T12:17:23.127Z,100864.31
2023-05-14T12:19:51.455Z,100904.81
2023-05-14T12:22:20.533Z,100884.50
2023-05-14T12:24:57.987Z,100905.34
2023-05-14T12:27:29.618Z,100897.63
2023-05-14T12:30:20.643Z,100873.13
2023-05-14T12:32:51.472Z,100890.69
2023-05-14T12:35:18.478Z,100879.38
2023-05-14T12:37:44.827Z,100835.59
2023-05-14T12:40:11.525Z,100846.69
2023-05-14T12:42:37.922Z,100846.59
2023-05-14T12:45:07.696Z,100819.47
2023-05-14T12:47:34.473Z,100863.13
2023-05-14T12:50:01.150Z,100859.25
2023-05-14T12:52:37.954Z,100841.25
2023-05-14T12:55:09.356Z,100876.69
2023-05-14T12:57:37.026Z,100827.25
2023-05-14T13:00:07.726Z,100863.31
2023-05-14T13:02:42.064Z,100850.00
2023-05-14T13:05:10.221Z,100835.22
2023-05-14T13:07:36.644Z,100849.56
2023-05-14T13:10:05.670Z,100814.25
2023-05-14T13:12:36.491Z,100844.88
2023-05-14T13:15:06.220Z,100840.47
2023-05-14T13:17:34.859Z,100842.59
2023-05-14T13:20:03.054Z,100822.03
2023-05-14T13:22:29.486Z,100828.66
2023-05-14T13:24:55.869Z,100838.66
2023-05-14T13:27:22.265Z,100834.16
2023-05-14T13:29:48.592Z,100828.50
2023-05-14T13:32:14.921Z,100817.03
2023-05-14T13:34:41.354Z,100798.09
2023-05-14T13:37:07.724Z,100823.19
2023-05-14T13:39:34.050Z,100798.97
2023-05-14T13:42:01.008Z,100760.09
2023-05-14T13:44:27.642Z,100757.44
2023-05-14T13:46:54.125Z,100786.97
2023-05-14T13:49:21.080Z,100803.66
2023-05-14T13:51:47.394Z,100816.41
2023-05-14T13:54:13.792Z,100733.28
2023-05-14T13:56:40.349Z,100805.69
2023-05-14T13:59:06.820Z,100767.59
2023-05-14T14:01:33.240Z,100749.88
2023-05-14T14:03:59.721Z,100760.03
2023-05-14T14:06:29.407Z,100734.91
2023-05-14T14:08:55.748Z,100777.56
2023-05-14T14:11:22.207Z,100726.03
2023-05-14T14:13:48.748Z,100788.31
2023-05-14T14:16:16.163Z,100799.88
2023-05-14T14:18:43.157Z,100749.91
2023-05-14T14:21:10.254Z,100795.88
2023-05-14T14:23:36.594Z,100774.06
2023-05-14T14:26:03.110Z,100769.16
2023-05-14T14:28:29.822Z,100715.31
2023-05-14T14:30:56.156Z,100749.63
2023-05-14T14:33:22.480Z,100763.22
2023-05-14T14:35:48.839Z,100769.66
2023-05-14T14:38:15.316Z,100768.72
2023-05-14T14:40:41.778Z,100741.03
2023-05-14T14:43:08.153Z,100740.94
2023-05-14T14:45:34.646Z,100760.69
2023-05-14T14:48:34.167Z,100773.56
2023-05-14T14:51:03.435Z,100775.50
2023-05-14T14:53:31.017Z,100756.19
2023-05-14T14:55:58.123Z,100773.97
2023-05-14T14:58:24.719Z,100772.00
2023-05-14T15:00:53.356Z,100772.34
2023-05-14T15:03:20.639Z,100773.56
2023-05-14T15:05:47.416Z,100770.69
2023-05-14T15:08:14.573Z,100773.69
2023-05-14T15:10:41.576Z,100771.47
2023-05-14T15:13:08.574Z,100718.44
2023-05-14T15:15:35.754Z,100764.66
2023-05-14T15:18:03.140Z,100764.91
2023-05-14T15:20:29.597Z,100702.13
2023-05-14T15:22:56.121Z,100756.63
2023-05-14T15:25:23.982Z,100762.06
2023-05-14T15:27:52.139Z,100768.13
2023-05-14T15:30:18.621Z,100646.03
2023-05-14T15:32:45.775Z,100755.72
2023-05-14T15:35:12.572Z,100721.81
2023-05-14T15:37:42.308Z,100739.56
2023-05-14T15:40:10.150Z,100669.47
2023-05-14T15:42:38.375Z,100751.56
2023-05-14T15:45:05.629Z,100731.72
2023-05-14T15:47:32.315Z,100714.31
2023-05-14T15:49:59.082Z,100704.09
2023-05-14T15:52:25.863Z,100703.06
2023-05-14T15:54:52.328Z,100765.94
2023-05-14T15:57:19.974Z,100689.47
2023-05-14T15:59:47.164Z,100729.41
2023-05-14T16:02:14.597Z,100676.69
2023-05-14T16:04:41.140Z,100678.06
2023-05-14T16:07:12.177Z,100716.38
2023-05-14T16:09:38.792Z,100647.72
2023-05-14T16:12:06.435Z,100743.28
2023-05-14T16:14:35.877Z,100728.41
2023-05-14T16:17:02.315Z,100731.31
2023-05-14T16:19:28.816Z,100728.69
2023-05-14T16:21:55.276Z,100662.91
2023-05-14T16:24:21.722Z,100732.69
2023-05-14T16:26:48.200Z,100742.69
2023-05-14T16:29:14.654Z,100667.44
2023-05-14T16:31:41.155Z,100668.75
2023-05-14T16:34:07.658Z,100731.34
2023-05-14T16:36:34.294Z,100700.09
2023-05-14T16:41:30.203Z,100696.31
2023-05-14T16:43:56.563Z,100708.47
2023-05-14T16:46:23.170Z,100720.34
2023-05-14T16:48:50.561Z,100732.47
2023-05-14T16:51:16.971Z,100716.00
2023-05-14T16:53:43.382Z,100716.34
2023-05-14T16:56:09.996Z,100752.41
2023-05-14T16:58:36.406Z,100731.06
2023-05-14T17:01:02.868Z,100617.00
2023-05-14T17:03:29.266Z,100741.44
2023-05-14T17:05:55.646Z,100713.78
2023-05-14T17:08:22.123Z,100718.59
2023-05-14T17:10:48.492Z,100733.22
2023-05-14T17:13:14.835Z,100712.63
2023-05-14T17:15:42.362Z,100721.63
2023-05-14T17:18:08.958Z,100731.13
2023-05-14T17:20:35.419Z,100709.22
2023-05-14T17:23:01.866Z,100735.94
2023-05-14T17:25:28.205Z,100663.28
2023-05-14T17:27:54.556Z,100737.88
2023-05-14T17:30:21.264Z,100725.47
2023-05-14T17:32:50.344Z,100692.00
2023-05-14T17:35:17.460Z,100727.41
2023-05-14T17:37:44.092Z,100721.16
2023-05-14T17:40:14.809Z,100634.03
2023-05-14T17:42:41.241Z,100633.59
2023-05-14T17:45:08.642Z,100669.66
2023-05-14T17:47:35.044Z,100619.41
2023-05-14T17:50:01.485Z,100698.59
2023-05-14T17:52:27.933Z,100691.75
2023-05-14T17:54:54.457Z,100587.97
2023-05-14T17:57:21.204Z,100599.34
2023-05-14T17:59:47.744Z,100675.63
2023-05-14T18:02:14.126Z,100582.59
2023-05-14T18:04:40.560Z,100699.31
2023-05-14T18:07:07.124Z,100629.69
2023-05-14T18:09:33.652Z,100622.84
2023-05-14T18:12:00.180Z,100622.78
2023-05-14T18:14:26.539Z,100749.81
2023-05-14T18:16:54.676Z,100752.25
2023-05-14T18:19:21.488Z,100640.56
2023-05-14T18:21:48.125Z,100741.59
2023-05-14T18:24:14.609Z,100738.78
2023-05-14T18:26:41.040Z,100738.78
2023-05-14T18:29:07.473Z,100746.25
2023-05-14T18:31:34.019Z,100709.00
2023-05-14T18:34:07.859Z,100738.13
2023-05-14T18:36:34.437Z,100690.00
2023-05-14T18:39:00.820Z,100755.34
2023-05-14T18:41:27.346Z,100680.56
2023-05-14T18:43:53.754Z,100786.34
2023-05-14T18:46:20.345Z,100709.25
2023-05-14T18:48:46.816Z,100768.66
2023-05-14T18:51:13.324Z,100743.44
2023-05-14T18:53:39.861Z,100673.31
2023-05-14T18:56:06.371Z,100572.59
2023-05-14T18:58:32.810Z,100764.09
2023-05-14T19:01:02.337Z,100636.38
2023-05-14T19:03:35.124Z,100669.66
2023-05-14T19:06:01.638Z,100652.16
2023-05-14T19:08:28.040Z,100758.16
2023-05-14T19:10:56.824Z,100766.91
2023-05-14T19:13:23.678Z,100737.69
2023-05-14T19:15:50.291Z,100759.75
2023-05-14T19:18:17.632Z,100767.44
2023-05-14T19:20:46.165Z,100787.13
2023-05-14T19:23:12.673Z,100650.13
2023-05-14T19:25:39.170Z,100637.34
2023-05-14T19:28:05.875Z,100725.66
2023-05-14T19:30:32.299Z,100629.78
2023-05-14T19:32:58.780Z,100775.16
2023-05-14T19:35:25.481Z,100776.28
2023-05-14T19:37:52.992Z,100690.38
2023-05-14T19:40:19.423Z,100679.91
2023-05-14T19:42:48.229Z,100704.81
2023-05-14T19:45:21.069Z,100630.16
2023-05-14T19:47:48.755Z,100799.28
2023-05-14T19:50:16.800Z,100659.69
2023-05-14T19:52:45.120Z,100732.00
2023-05-14T19:55:11.715Z,100702.53
2023-05-14T19:57:39.127Z,100750.72
2023-05-14T20:00:09.493Z,100686.56
2023-05-14T20:02:36.049Z,100571.88
2023-05-14T20:05:02.590Z,100667.66
2023-05-14T20:07:30.683Z,100692.69
2023-05-14T20:09:57.168Z,100707.50
2023-05-14T20:12:24.730Z,100735.25
2023-05-14T20:14:51.634Z,100683.59
2023-05-14T20:17:18.139Z,100632.59
2023-05-14T20:19:44.655Z,100806.72
2023-05-14T20:22:15.092Z,100615.22
2023-05-14T20:24:41.459Z,100613.72
2023-05-14T20:27:08.041Z,100757.03
2023-05-14T20:29:34.568Z,100762.59
2023-05-14T20:32:01.040Z,100668.06
2023-05-14T20:34:27.418Z,100734.59
2023-05-14T20:36:53.965Z,100703.84
2023-05-14T20:39:20.605Z,100635.41
2023-05-14T20:41:47.016Z,100800.59
2023-05-14T20:44:13.449Z,100736.75
2023-05-14T20:46:40.016Z,100672.22
2023-05-14T20:49:06.497Z,100646.34
2023-05-14T20:51:33.001Z,100695.72
2023-05-14T20:53:59.383Z,100730.47
2023-05-14T20:56:26.475Z,100790.16
2023-05-14T20:58:52.850Z,100769.34
2023-05-14T21:01:19.529Z,100761.88
2023-05-14T21:03:47.288Z,100708.13
2023-05-14T21:06:13.960Z,100775.44
2023-05-14T21:08:40.485Z,100716.59
2023-05-14T21:11:09.467Z,100650.50
2023-05-14T21:13:38.924Z,100771.72
2023-05-14T21:16:07.967Z,100661.34
2023-05-14T21:18:34.364Z,100783.06
2023-05-14T21:21:03.796Z,100646.19
2023-05-14T21:23:30.274Z,100767.97
2023-05-14T21:25:57.825Z,100659.22
2023-05-14T21:28:26.490Z,100653.56
2023-05-14T21:30:53.018Z,100741.09
2023-05-14T21:33:19.509Z,100753.25
2023-05-14T21:35:48.249Z,100638.47
2023-05-14T21:38:15.203Z,100661.44
2023-05-14T21:40:41.581Z,100674.69
2023-05-14T21:43:08.000Z,100611.09
2023-05-14T21:45:34.877Z,100692.44
2023-05-14T21:48:01.510Z,100773.31
2023-05-14T21:50:36.829Z,100652.47
2023-05-14T21:53:03.328Z,100574.44
2023-05-14T21:55:29.706Z,100657.63
2023-05-14T21:57:56.181Z,100704.78
2023-05-14T22:00:26.502Z,100759.78
2023-05-14T22:02:53.248Z,100749.25
2023-05-14T22:05:20.045Z,100607.00
2023-05-14T22:07:46.664Z,100665.38
2023-05-14T22:10:14.188Z,100771.31
2023-05-14T22:12:44.082Z,100592.34
2023-05-14T22:15:11.660Z,100634.25
2023-05-14T22:17:38.804Z,100774.47
2023-05-14T22:20:07.484Z,100707.59
2023-05-14T22:22:34.176Z,100768.88
2023-05-14T22:25:00.723Z,100748.75
2023-05-14T22:27:27.181Z,100630.97
2023-05-14T22:29:55.090Z,100751.19
2023-05-14T22:32:21.565Z,100644.44
2023-05-14T22:34:47.957Z,100616.03
2023-05-14T22:37:14.366Z,100747.25
2023-05-14T22:39:40.880Z,100566.44
2023-05-14T22:42:07.507Z,100639.63
2023-05-14T22:44:35.296Z,100671.66
2023-05-14T22:47:01.820Z,100670.91
2023-05-14T22:49:28.251Z,100662.88
2023-05-14T22:51:54.582Z,100708.44
2023-05-14T22:54:21.217Z,100730.19
2023-05-14T22:56:47.683Z,100730.16
2023-05-14T22:59:14.037Z,100710.06
2023-05-14T23:01:40.571Z,100580.56
2023-05-14T23:04:09.305Z,100546.84
2023-05-14T23:06:35.885Z,100746.47
2023-05-14T23:09:02.320Z,100557.16
2023-05-14T23:11:28.937Z,100647.72
2023-05-14T23:13:55.730Z,100522.88
2023-05-14T23:16:24.407Z,100715.16
2023-05-14T23:18:50.995Z,100614.63
2023-05-14T23:21:20.026Z,100658.41
2023-05-14T23:23:46.650Z,100653.69
2023-05-14T23:26:13.207Z,100576.13
2023-05-14T23:28:42.182Z,100734.22
2023-05-14T23:31:08.582Z,100655.84
2023-05-14T23:33:35.039Z,100551.16
2023-05-14T23:36:01.538Z,100710.88
2023-05-14T23:38:27.942Z,100748.88
2023-05-14T23:40:56.733Z,100599.34
2023-05-14T23:43:23.595Z,100579.66
2023-05-14T23:45:50.003Z,100697.00
2023-05-14T23:48:16.463Z,100573.75
2023-05-14T23:50:43.816Z,100591.81
2023-05-14T23:53:10.315Z,100513.09
2023-05-14T23:55:36.726Z,100640.63
2023-05-14T23:58:03.266Z,100637.34
